createdAt,value
2019-04-06T00:00:42.630Z,85.40
2019-04-06T00:03:18.658Z,84.60
2019-04-06T00:05:53.104Z,85.60
2019-04-06T00:08:24.656Z,86.00
2019-04-06T00:10:57.404Z,86.80
2019-04-06T00:13:29.793Z,87.70
2019-04-06T00:16:00.390Z,88.50
2019-04-06T00:18:32.610Z,86.70
2019-04-06T00:21:05.469Z,85.30
2019-04-06T00:23:35.635Z,85.30
2019-04-06T00:26:07.229Z,86.00
2019-04-06T00:28:40.065Z,87.30
2019-04-06T00:31:31.659Z,90.20
2019-04-06T00:34:02.621Z,91.10
2019-04-06T00:36:39.376Z,90.70
2019-04-06T00:39:12.044Z,90.30
2019-04-06T00:41:44.372Z,78.40
2019-04-06T00:44:28.293Z,78.80
2019-04-06T00:47:00.390Z,79.30
2019-04-06T00:49:35.145Z,84.00
2019-04-06T00:52:09.361Z,83.90
2019-04-06T00:54:40.616Z,84.70
2019-04-06T00:57:14.904Z,85.40
2019-04-06T00:59:47.358Z,84.40
2019-04-06T01:02:18.793Z,82.00
2019-04-06T01:04:49.631Z,84.50
2019-04-06T01:07:19.784Z,87.00
2019-04-06T01:09:51.317Z,87.00
2019-04-06T01:12:23.221Z,83.00
2019-04-06T01:14:55.391Z,81.60
2019-04-06T01:17:29.576Z,82.00
2019-04-06T01:20:03.435Z,82.40
2019-04-06T01:22:36.562Z,84.20
2019-04-06T01:25:09.174Z,85.20
2019-04-06T01:27:42.536Z,83.30
2019-04-06T01:30:15.804Z,83.10
2019-04-06T01:32:49.128Z,86.90
2019-04-06T01:35:22.239Z,90.00
2019-04-06T01:37:53.565Z,89.60
2019-04-06T01:40:25.788Z,87.90
2019-04-06T01:43:01.532Z,88.10
2019-04-06T01:45:36.461Z,88.40
2019-04-06T01:48:09.039Z,83.80
2019-04-06T01:50:43.155Z,84.40
2019-04-06T01:53:15.632Z,79.10
2019-04-06T01:55:49.176Z,78.40
2019-04-06T01:58:21.799Z,80.40
2019-04-06T02:01:07.495Z,82.60
2019-04-06T02:03:39.386Z,82.20
2019-04-06T02:06:10.307Z,84.50
2019-04-06T02:08:42.530Z,85.80
2019-04-06T02:11:14.198Z,86.10
2019-04-06T02:13:44.412Z,81.90
2019-04-06T02:16:14.968Z,81.90
2019-04-06T02:18:45.537Z,81.60
2019-04-06T02:21:17.075Z,83.70
2019-04-06T02:23:49.230Z,84.10
2019-04-06T02:26:29.639Z,83.90
2019-04-06T02:28:51.299Z,87.10
2019-04-06T02:31:36.723Z,87.50
2019-04-06T02:34:28.851Z,85.80
2019-04-06T02:37:26.761Z,88.10
2019-04-06T02:40:08.487Z,88.60
2019-04-06T02:43:02.414Z,87.90
2019-04-06T02:45:34.421Z,86.00
2019-04-06T02:48:05.088Z,82.00
2019-04-06T02:50:35.473Z,84.00
2019-04-06T02:53:08.817Z,87.40
2019-04-06T02:55:40.927Z,89.70
2019-04-06T02:58:12.298Z,85.50
2019-04-06T03:00:42.582Z,84.40
2019-04-06T03:03:12.905Z,86.40
2019-04-06T03:05:45.230Z,88.00
2019-04-06T03:08:19.543Z,88.70
2019-04-06T03:10:53.319Z,90.70
2019-04-06T03:13:26.793Z,90.00
2019-04-06T03:15:58.538Z,88.30
2019-04-06T03:18:30.540Z,86.30
2019-04-06T03:21:02.984Z,88.40
2019-04-06T03:23:49.062Z,88.20
2019-04-06T03:26:12.524Z,88.20
2019-04-06T03:28:44.775Z,89.00
2019-04-06T03:31:16.287Z,88.70
2019-04-06T03:33:49.005Z,88.60
2019-04-06T03:36:22.267Z,88.80
2019-04-06T03:38:52.456Z,91.20
2019-04-06T03:41:25.205Z,91.50
2019-04-06T03:43:55.512Z,91.20
2019-04-06T03:46:26.967Z,90.10
2019-04-06T03:49:00.053Z,90.00
2019-04-06T03:51:30.240Z,88.60
2019-04-06T03:54:01.018Z,83.20
2019-04-06T03:56:33.576Z,79.50
2019-04-06T03:59:03.691Z,81.20
2019-04-06T04:01:36.929Z,83.90
2019-04-06T04:04:09.915Z,84.30
2019-04-06T04:06:41.878Z,85.20
2019-04-06T04:09:14.992Z,88.20
2019-04-06T04:11:47.309Z,88.90
2019-04-06T04:14:18.061Z,90.40
2019-04-06T04:16:49.493Z,90.00
2019-04-06T04:19:22.336Z,87.70
2019-04-06T04:21:53.350Z,88.30
2019-04-06T04:24:25.454Z,89.40
2019-04-06T04:26:55.669Z,90.10
2019-04-06T04:29:27.067Z,90.00
2019-04-06T04:31:57.650Z,88.50
2019-04-06T04:34:27.743Z,85.60
2019-04-06T04:36:58.760Z,81.00
2019-04-06T04:39:28.905Z,78.40
2019-04-06T04:42:02.468Z,80.60
2019-04-06T04:44:32.620Z,83.80
2019-04-06T04:47:06.738Z,81.90
2019-04-06T04:49:39.150Z,82.40
2019-04-06T04:52:11.324Z,82.70
2019-04-06T04:54:41.623Z,83.00
2019-04-06T04:57:13.497Z,84.90
2019-04-06T04:59:46.429Z,86.40
2019-04-06T05:02:20.244Z,86.60
2019-04-06T05:04:51.931Z,87.20
2019-04-06T05:07:23.303Z,83.50
2019-04-06T05:09:55.759Z,84.90
2019-04-06T05:12:28.303Z,81.10
2019-04-06T05:15:01.620Z,80.10
2019-04-06T05:17:34.808Z,82.50
2019-04-06T05:20:08.549Z,85.00
2019-04-06T05:22:45.185Z,83.30
2019-04-06T05:25:22.433Z,81.90
2019-04-06T05:28:00.307Z,77.30
2019-04-06T05:30:31.257Z,77.80
2019-04-06T05:33:08.520Z,77.40
2019-04-06T05:35:41.665Z,76.00
2019-04-06T05:38:18.047Z,77.90
2019-04-06T05:40:48.695Z,78.10
2019-04-06T05:43:22.222Z,77.40
2019-04-06T05:46:04.107Z,76.20
2019-04-06T05:48:38.855Z,76.40
2019-04-06T05:51:10.603Z,78.60
2019-04-06T05:53:58.330Z,81.00
2019-04-06T05:56:33.789Z,81.30
2019-04-06T05:59:04.622Z,83.40
2019-04-06T06:01:41.003Z,78.00
2019-04-06T06:04:12.486Z,73.70
2019-04-06T06:06:47.863Z,72.20
2019-04-06T06:12:14.936Z,69.30
2019-04-06T06:14:46.879Z,72.80
2019-04-06T06:17:22.741Z,74.60
2019-04-06T06:19:57.119Z,73.90
2019-04-06T06:26:17.231Z,73.90
2019-04-06T06:29:02.600Z,69.80
2019-04-06T06:32:18.281Z,68.00
2019-04-06T06:35:35.440Z,67.00
2019-04-06T06:38:08.398Z,65.80
2019-04-06T06:40:45.521Z,68.20
2019-04-06T06:43:40.832Z,68.50
2019-04-06T06:46:35.568Z,71.00
2019-04-06T06:49:08.996Z,68.50
2019-04-06T06:51:44.048Z,68.50
2019-04-06T06:54:14.255Z,67.70
2019-04-06T06:56:45.555Z,69.70
2019-04-06T06:59:22.862Z,68.70
2019-04-06T07:01:58.427Z,69.10
2019-04-06T07:04:29.266Z,67.90
2019-04-06T07:06:59.804Z,68.00
2019-04-06T07:09:39.434Z,68.00
2019-04-06T07:12:13.341Z,66.00
2019-04-06T07:14:46.328Z,66.70
2019-04-06T07:17:18.719Z,68.70
2019-04-06T07:19:53.981Z,66.50
2019-04-06T07:22:28.367Z,67.20
2019-04-06T07:25:00.650Z,65.50
2019-04-06T07:27:32.710Z,64.60
2019-04-06T07:30:07.062Z,62.30
2019-04-06T07:32:39.282Z,61.00
2019-04-06T07:39:09.398Z,58.30
2019-04-06T07:41:45.595Z,58.00
2019-04-06T07:44:27.217Z,56.80
2019-04-06T07:47:03.800Z,56.60
2019-04-06T07:49:46.608Z,57.00
2019-04-06T07:53:01.188Z,56.10
2019-04-06T07:59:43.571Z,53.90
2019-04-06T08:02:20.055Z,50.80
2019-04-06T08:11:55.539Z,51.00
2019-04-06T08:14:57.410Z,51.30
2019-04-06T08:24:27.608Z,47.00
2019-04-06T08:31:13.413Z,46.00
2019-04-06T08:33:45.823Z,45.00
2019-04-06T08:36:16.455Z,44.40
2019-04-06T08:38:48.807Z,42.00
2019-04-06T08:41:22.038Z,41.50
2019-04-06T08:43:56.356Z,41.10
2019-04-06T08:46:27.101Z,40.20
2019-04-06T08:48:58.876Z,39.40
2019-04-06T08:51:30.786Z,39.10
2019-04-06T08:54:03.171Z,37.20
2019-04-06T08:56:34.308Z,38.50
2019-04-06T08:59:13.673Z,37.70
2019-04-06T09:01:48.083Z,37.10
2019-04-06T09:04:22.935Z,35.80
2019-04-06T09:06:55.304Z,35.90
2019-04-06T09:09:30.950Z,34.00
2019-04-06T09:12:26.787Z,34.70
2019-04-06T09:14:59.339Z,32.90
2019-04-06T09:17:34.747Z,32.40
2019-04-06T09:20:06.357Z,33.40
2019-04-06T09:22:40.128Z,30.40
2019-04-06T09:25:27.301Z,30.20
2019-04-06T09:27:57.817Z,29.20
2019-04-06T09:30:31.552Z,28.50
2019-04-06T09:33:03.219Z,28.20
2019-04-06T09:35:36.330Z,28.30
2019-04-06T09:38:09.901Z,28.30
2019-04-06T09:40:42.187Z,26.20
2019-04-06T09:43:13.691Z,26.80
2019-04-06T09:46:01.868Z,26.30
2019-04-06T09:49:06.749Z,26.80
2019-04-06T09:52:07.781Z,25.20
2019-04-06T09:55:09.464Z,25.50
2019-04-06T09:57:52.650Z,24.60
2019-04-06T10:00:52.637Z,24.00
2019-04-06T10:03:51.694Z,23.50
2019-04-06T10:06:50.883Z,23.80
2019-04-06T10:09:43.753Z,23.20
2019-04-06T10:12:37.235Z,23.30
2019-04-06T10:15:27.069Z,22.40
2019-04-06T10:18:03.694Z,22.00
2019-04-06T10:20:43.277Z,21.90
2019-04-06T10:23:53.448Z,21.60
2019-04-06T10:26:48.505Z,22.40
2019-04-06T10:29:50.037Z,22.70
2019-04-06T10:32:54.733Z,22.10
2019-04-06T10:35:57.494Z,22.20
2019-04-06T10:38:50.855Z,23.50
2019-04-06T10:41:45.549Z,23.40
2019-04-06T10:44:36.635Z,22.90
2019-04-06T10:47:42.168Z,23.20
2019-04-06T10:50:23.094Z,23.90
2019-04-06T10:53:15.856Z,23.20
2019-04-06T10:56:11.634Z,23.90
2019-04-06T10:58:58.085Z,23.40
2019-04-06T11:01:46.454Z,23.50
2019-04-06T11:04:35.486Z,23.40
2019-04-06T11:07:23.515Z,23.70
2019-04-06T11:10:27.023Z,24.40
2019-04-06T11:13:37.228Z,23.80
2019-04-06T11:16:36.540Z,24.90
2019-04-06T11:19:39.247Z,25.10
2019-04-06T11:22:19.205Z,25.10
2019-04-06T11:25:10.539Z,25.60
2019-04-06T11:28:00.096Z,26.10
2019-04-06T11:30:54.123Z,25.50
2019-04-06T11:34:11.729Z,26.40
2019-04-06T11:37:02.611Z,26.30
2019-04-06T11:39:40.619Z,26.70
2019-04-06T11:42:26.586Z,26.50
2019-04-06T11:45:08.819Z,26.80
2019-04-06T11:48:00.983Z,25.70
2019-04-06T11:50:53.242Z,25.90
2019-04-06T11:53:46.997Z,25.80
2019-04-06T11:56:37.656Z,25.20
2019-04-06T11:59:27.204Z,25.60
2019-04-06T12:02:07.613Z,26.10
2019-04-06T12:04:48.343Z,26.20
2019-04-06T12:07:46.822Z,27.30
2019-04-06T12:10:45.269Z,26.70
2019-04-06T12:13:52.670Z,26.60
2019-04-06T12:16:52.632Z,25.30
2019-04-06T12:19:50.923Z,24.90
2019-04-06T12:22:40.182Z,25.00
2019-04-06T12:25:29.921Z,25.30
2019-04-06T12:28:10.660Z,24.20
2019-04-06T12:30:51.552Z,23.40
2019-04-06T12:33:50.053Z,22.40
2019-04-06T12:36:30.875Z,22.30
2019-04-06T12:39:27.921Z,22.80
2019-04-06T12:42:15.726Z,23.70
2019-04-06T12:45:03.180Z,24.10
2019-04-06T12:47:51.588Z,22.30
2019-04-06T12:50:33.829Z,22.50
2019-04-06T12:53:29.005Z,21.90
2019-04-06T12:56:08.000Z,22.40
2019-04-06T12:58:55.208Z,21.40
2019-04-06T13:01:46.564Z,21.90
2019-04-06T13:04:50.557Z,21.00
2019-04-06T13:07:30.550Z,21.10
2019-04-06T13:10:10.641Z,22.10
2019-04-06T13:13:09.053Z,22.40
2019-04-06T13:15:50.797Z,22.30
2019-04-06T13:18:37.450Z,21.10
2019-04-06T13:21:25.883Z,20.90
2019-04-06T13:24:14.895Z,21.00
2019-04-06T13:27:05.331Z,20.70
2019-04-06T13:30:14.293Z,21.50
2019-04-06T13:33:08.670Z,22.10
2019-04-06T13:35:47.794Z,21.40
2019-04-06T13:38:45.852Z,20.30
2019-04-06T13:41:37.717Z,20.20
2019-04-06T13:44:26.911Z,19.20
2019-04-06T13:47:22.887Z,18.30
2019-04-06T13:50:17.848Z,17.80
2019-04-06T13:53:17.035Z,15.60
2019-04-06T13:56:06.278Z,15.20
2019-04-06T13:59:07.618Z,14.80
2019-04-06T14:01:59.172Z,14.80
2019-04-06T14:04:51.669Z,14.80
2019-04-06T14:07:40.247Z,15.40
2019-04-06T14:10:40.025Z,14.30
2019-04-06T14:13:34.680Z,14.20
2019-04-06T14:16:43.204Z,15.00
2019-04-06T14:19:42.449Z,13.90
2019-04-06T14:22:44.492Z,13.10
2019-04-06T14:25:48.876Z,13.40
2019-04-06T14:32:02.074Z,14.60
2019-04-06T14:35:17.930Z,15.80
2019-04-06T14:38:50.756Z,13.80
2019-04-06T14:41:46.087Z,14.10
2019-04-06T14:44:38.285Z,12.30
2019-04-06T14:47:37.559Z,11.70
2019-04-06T14:50:42.041Z,12.90
2019-04-06T14:53:26.234Z,13.60
2019-04-06T14:56:23.400Z,14.60
2019-04-06T15:00:01.154Z,14.20
2019-04-06T15:02:48.432Z,16.10
2019-04-06T15:05:43.296Z,15.40
2019-04-06T15:08:45.911Z,16.20
2019-04-06T15:11:55.055Z,17.10
2019-04-06T15:15:10.967Z,16.60
2019-04-06T15:26:01.218Z,15.20
2019-04-06T15:29:19.287Z,14.90
2019-04-06T15:32:04.297Z,15.90
2019-04-06T15:34:55.576Z,16.70
2019-04-06T15:42:01.525Z,16.30
2019-04-06T15:44:47.036Z,15.90
2019-04-06T15:47:39.056Z,16.90
2019-04-06T16:05:59.556Z,17.80
2019-04-06T16:08:57.059Z,17.70
2019-04-06T17:14:45.071Z,22.60
2019-04-06T17:17:46.250Z,23.70
2019-04-06T17:20:34.161Z,23.20
2019-04-06T17:23:37.399Z,23.60
2019-04-06T17:26:36.081Z,23.70
2019-04-06T17:29:28.130Z,24.00
2019-04-06T17:32:16.066Z,24.70
2019-04-06T17:35:19.527Z,25.30
2019-04-06T17:38:16.902Z,25.70
2019-04-06T17:41:00.901Z,27.40
2019-04-06T17:44:05.916Z,27.40
2019-04-06T17:47:13.379Z,26.70
2019-04-06T17:50:05.291Z,27.30
2019-04-06T17:52:51.419Z,27.40
2019-04-06T17:56:06.945Z,27.10
2019-04-06T18:12:26.411Z,38.00
2019-04-06T18:15:10.853Z,40.70
2019-04-06T18:17:44.740Z,41.50
2019-04-06T18:20:15.586Z,42.00
2019-04-06T18:22:52.935Z,40.90
2019-04-06T18:25:25.293Z,41.00
2019-04-06T18:27:57.200Z,42.50
2019-04-06T18:33:27.516Z,45.20
2019-04-06T18:37:05.096Z,47.10
2019-04-06T18:42:43.506Z,51.70
2019-04-06T18:45:23.189Z,51.00
2019-04-06T18:48:09.136Z,51.50
2019-04-06T18:50:43.033Z,53.90
2019-04-06T18:56:28.250Z,54.50
2019-04-06T18:59:03.978Z,54.40
2019-04-06T19:01:39.245Z,57.70
2019-04-06T19:04:14.316Z,58.70
2019-04-06T19:06:56.858Z,59.20
2019-04-06T19:09:43.252Z,58.80
2019-04-06T19:12:36.878Z,58.50
2019-04-06T19:15:15.121Z,59.00
2019-04-06T19:17:55.130Z,59.50
2019-04-06T19:20:30.882Z,59.60
2019-04-06T19:23:40.131Z,62.80
2019-04-06T19:26:10.809Z,64.30
2019-04-06T19:28:47.365Z,64.70
2019-04-06T19:31:19.718Z,64.70
2019-04-06T19:33:52.881Z,62.20
2019-04-06T19:36:29.887Z,63.30
2019-04-06T19:39:08.708Z,65.50
2019-04-06T19:41:40.734Z,64.60
2019-04-06T19:44:14.721Z,63.40
2019-04-06T19:46:53.366Z,63.10
2019-04-06T19:52:37.629Z,63.30
2019-04-06T19:55:14.838Z,61.90
2019-04-06T19:57:57.576Z,62.70
2019-04-06T20:00:50.152Z,64.50
2019-04-06T20:03:36.004Z,65.00
2019-04-06T20:06:11.648Z,70.70
2019-04-06T20:08:45.237Z,68.40
2019-04-06T20:11:27.426Z,67.80
2019-04-06T20:14:18.337Z,71.40
2019-04-06T20:17:16.578Z,75.30
2019-04-06T20:23:16.670Z,76.00
2019-04-06T20:26:03.429Z,70.90
2019-04-06T20:28:46.907Z,70.50
2019-04-06T20:31:35.596Z,73.90
2019-04-06T20:34:07.679Z,74.60
2019-04-06T20:36:40.840Z,72.60
2019-04-06T20:39:25.582Z,71.90
2019-04-06T20:42:00.932Z,75.90
2019-04-06T20:45:06.613Z,73.90
2019-04-06T20:50:23.803Z,76.60
2019-04-06T20:55:57.049Z,72.30
2019-04-06T20:58:39.396Z,73.20
2019-04-06T21:01:13.545Z,77.70
2019-04-06T21:04:02.862Z,79.10
2019-04-06T21:06:38.085Z,78.80
2019-04-06T21:12:13.039Z,68.30
2019-04-06T21:15:15.446Z,72.30
2019-04-06T21:17:49.410Z,70.90
2019-04-06T21:20:24.351Z,75.20
2019-04-06T21:23:01.849Z,79.50
2019-04-06T21:25:36.496Z,78.60
2019-04-06T21:28:14.418Z,77.80
2019-04-06T21:30:58.641Z,79.80
2019-04-06T21:33:34.156Z,81.30
2019-04-06T21:36:35.074Z,82.60
2019-04-06T21:39:18.635Z,78.50
2019-04-06T21:42:03.634Z,80.70
2019-04-06T21:44:57.486Z,82.50
2019-04-06T21:47:34.005Z,79.00
2019-04-06T21:50:13.683Z,76.50
2019-04-06T21:52:55.791Z,79.30
2019-04-06T21:56:02.170Z,80.90
2019-04-06T22:01:52.892Z,80.00
2019-04-06T22:04:48.588Z,72.60
2019-04-06T22:10:28.724Z,83.50
2019-04-06T22:13:02.644Z,86.90
2019-04-06T22:15:33.968Z,86.80
2019-04-06T22:18:07.827Z,86.10
2019-04-06T22:20:42.143Z,87.70
2019-04-06T22:23:17.846Z,87.30
2019-04-06T22:25:53.606Z,88.30
2019-04-06T22:28:24.458Z,87.00
2019-04-06T22:30:56.299Z,83.30
2019-04-06T22:33:26.742Z,80.60
2019-04-06T22:38:50.443Z,84.30
2019-04-06T22:41:21.082Z,85.20
2019-04-06T22:44:03.368Z,83.90
2019-04-06T22:46:38.040Z,83.10
2019-04-06T22:49:11.240Z,81.00
2019-04-06T22:51:49.650Z,78.20
2019-04-06T22:54:22.975Z,80.30
2019-04-06T22:56:54.353Z,83.90
2019-04-06T22:59:31.137Z,84.70
2019-04-06T23:02:07.715Z,86.30
2019-04-06T23:04:59.279Z,85.60
2019-04-06T23:07:33.881Z,87.00
2019-04-06T23:10:06.307Z,88.10
2019-04-06T23:12:42.445Z,87.80
2019-04-06T23:15:18.004Z,87.80
2019-04-06T23:17:52.186Z,88.90
2019-04-06T23:20:28.037Z,88.10
2019-04-06T23:23:01.525Z,86.40
2019-04-06T23:25:34.895Z,77.90
2019-04-06T23:28:06.079Z,76.50
2019-04-06T23:30:37.546Z,78.90
2019-04-06T23:33:11.167Z,79.50
2019-04-06T23:35:44.941Z,81.70
2019-04-06T23:38:17.848Z,79.50
2019-04-06T23:40:50.924Z,78.70
2019-04-06T23:43:22.747Z,78.10
2019-04-06T23:45:59.168Z,81.70
2019-04-06T23:48:31.318Z,85.70
2019-04-06T23:51:07.827Z,87.20
2019-04-06T23:53:39.998Z,89.70
2019-04-06T23:56:22.185Z,90.20
2019-04-06T23:58:53.570Z,90.60
